sensor_id;sensor_type;location;lat;lon;timestamp;P1;durP1;ratioP1;P2;durP2;ratioP2
15595;SDS011;7898;48.658;9.068;2022-09-09T00:02:24;3.63;;;1.80;;
15595;SDS011;7898;48.658;9.068;2022-09-09T00:04:58;4.67;;;1.77;;
15595;SDS011;7898;48.658;9.068;2022-09-09T00:07:32;5.00;;;1.80;;
15595;SDS011;7898;48.658;9.068;2022-09-09T00:10:09;6.93;;;1.80;;
15595;SDS011;7898;48.658;9.068;2022-09-09T00:12:47;3.40;;;1.50;;
15595;SDS011;7898;48.658;9.068;2022-09-09T00:15:22;3.33;;;1.57;;
15595;SDS011;7898;48.658;9.068;2022-09-09T00:17:55;4.03;;;2.07;;
15595;SDS011;7898;48.658;9.068;2022-09-09T00:20:28;4.23;;;1.80;;
15595;SDS011;7898;48.658;9.068;2022-09-09T00:23:03;3.23;;;1.60;;
15595;SDS011;7898;48.658;9.068;2022-09-09T00:25:37;4.33;;;1.73;;
15595;SDS011;7898;48.658;9.068;2022-09-09T00:28:13;2.17;;;1.60;;
15595;SDS011;7898;48.658;9.068;2022-09-09T00:30:44;1.43;;;1.23;;
15595;SDS011;7898;48.658;9.068;2022-09-09T00:33:15;4.30;;;1.70;;
15595;SDS011;7898;48.658;9.068;2022-09-09T00:35:47;2.80;;;1.50;;
15595;SDS011;7898;48.658;9.068;2022-09-09T00:38:16;4.37;;;1.80;;
15595;SDS011;7898;48.658;9.068;2022-09-09T00:40:50;1.97;;;1.53;;
15595;SDS011;7898;48.658;9.068;2022-09-09T00:43:21;3.65;;;1.80;;
15595;SDS011;7898;48.658;9.068;2022-09-09T00:48:57;3.22;;;1.77;;
15595;SDS011;7898;48.658;9.068;2022-09-09T00:51:30;2.47;;;1.42;;
15595;SDS011;7898;48.658;9.068;2022-09-09T00:54:18;4.75;;;1.42;;
15595;SDS011;7898;48.658;9.068;2022-09-09T00:56:57;2.65;;;1.27;;
15595;SDS011;7898;48.658;9.068;2022-09-09T00:59:32;4.40;;;1.73;;
15595;SDS011;7898;48.658;9.068;2022-09-09T01:02:08;3.67;;;1.38;;
15595;SDS011;7898;48.658;9.068;2022-09-09T01:04:45;2.38;;;1.45;;
15595;SDS011;7898;48.658;9.068;2022-09-09T01:07:13;3.15;;;1.55;;
15595;SDS011;7898;48.658;9.068;2022-09-09T01:09:54;4.85;;;1.80;;
15595;SDS011;7898;48.658;9.068;2022-09-09T01:12:28;2.55;;;1.33;;
15595;SDS011;7898;48.658;9.068;2022-09-09T01:15:11;2.60;;;1.40;;
15595;SDS011;7898;48.658;9.068;2022-09-09T01:17:46;3.75;;;1.50;;
15595;SDS011;7898;48.658;9.068;2022-09-09T01:20:20;3.33;;;1.70;;
15595;SDS011;7898;48.658;9.068;2022-09-09T01:23:08;4.40;;;1.70;;
15595;SDS011;7898;48.658;9.068;2022-09-09T01:28:48;5.15;;;1.50;;
15595;SDS011;7898;48.658;9.068;2022-09-09T01:31:18;2.95;;;1.88;;
15595;SDS011;7898;48.658;9.068;2022-09-09T01:33:47;3.10;;;1.60;;
15595;SDS011;7898;48.658;9.068;2022-09-09T01:36:16;1.73;;;1.25;;
15595;SDS011;7898;48.658;9.068;2022-09-09T01:38:50;2.38;;;1.50;;
15595;SDS011;7898;48.658;9.068;2022-09-09T01:41:17;4.32;;;1.60;;
15595;SDS011;7898;48.658;9.068;2022-09-09T01:43:45;2.03;;;1.10;;
15595;SDS011;7898;48.658;9.068;2022-09-09T01:46:12;3.25;;;1.77;;
15595;SDS011;7898;48.658;9.068;2022-09-09T01:48:40;2.73;;;1.30;;
15595;SDS011;7898;48.658;9.068;2022-09-09T01:51:08;2.38;;;1.50;;
15595;SDS011;7898;48.658;9.068;2022-09-09T01:53:35;3.13;;;1.27;;
15595;SDS011;7898;48.658;9.068;2022-09-09T01:56:06;1.65;;;1.40;;
15595;SDS011;7898;48.658;9.068;2022-09-09T01:58:42;8.15;;;1.83;;
15595;SDS011;7898;48.658;9.068;2022-09-09T02:01:32;3.73;;;1.40;;
15595;SDS011;7898;48.658;9.068;2022-09-09T02:04:17;3.20;;;1.40;;
15595;SDS011;7898;48.658;9.068;2022-09-09T02:06:54;5.30;;;1.70;;
15595;SDS011;7898;48.658;9.068;2022-09-09T02:09:23;2.15;;;1.80;;
15595;SDS011;7898;48.658;9.068;2022-09-09T02:11:53;2.25;;;1.35;;
15595;SDS011;7898;48.658;9.068;2022-09-09T02:14:29;2.53;;;1.40;;
15595;SDS011;7898;48.658;9.068;2022-09-09T02:17:01;4.67;;;1.60;;
15595;SDS011;7898;48.658;9.068;2022-09-09T02:19:32;3.80;;;2.05;;
15595;SDS011;7898;48.658;9.068;2022-09-09T02:22:03;4.57;;;1.73;;
15595;SDS011;7898;48.658;9.068;2022-09-09T02:24:31;3.50;;;1.50;;
15595;SDS011;7898;48.658;9.068;2022-09-09T02:27:01;3.83;;;1.38;;
15595;SDS011;7898;48.658;9.068;2022-09-09T02:29:33;6.05;;;1.60;;
15595;SDS011;7898;48.658;9.068;2022-09-09T02:32:03;2.17;;;1.60;;
15595;SDS011;7898;48.658;9.068;2022-09-09T02:34:33;4.95;;;1.67;;
15595;SDS011;7898;48.658;9.068;2022-09-09T02:37:03;2.40;;;1.60;;
15595;SDS011;7898;48.658;9.068;2022-09-09T02:39:32;5.22;;;1.77;;
15595;SDS011;7898;48.658;9.068;2022-09-09T02:41:59;5.45;;;1.40;;
15595;SDS011;7898;48.658;9.068;2022-09-09T02:44:28;3.00;;;1.42;;
15595;SDS011;7898;48.658;9.068;2022-09-09T02:47:16;3.10;;;1.40;;
15595;SDS011;7898;48.658;9.068;2022-09-09T02:49:53;1.75;;;1.65;;
15595;SDS011;7898;48.658;9.068;2022-09-09T02:52:30;3.83;;;1.48;;
15595;SDS011;7898;48.658;9.068;2022-09-09T02:55:06;11.00;;;1.77;;
15595;SDS011;7898;48.658;9.068;2022-09-09T02:57:37;3.00;;;1.50;;
15595;SDS011;7898;48.658;9.068;2022-09-09T03:00:06;4.20;;;1.52;;
15595;SDS011;7898;48.658;9.068;2022-09-09T03:02:36;1.75;;;1.30;;
15595;SDS011;7898;48.658;9.068;2022-09-09T03:05:03;4.25;;;1.60;;
15595;SDS011;7898;48.658;9.068;2022-09-09T03:07:31;2.60;;;1.20;;
15595;SDS011;7898;48.658;9.068;2022-09-09T03:09:58;4.70;;;1.65;;
15595;SDS011;7898;48.658;9.068;2022-09-09T03:12:25;4.70;;;1.80;;
15595;SDS011;7898;48.658;9.068;2022-09-09T03:14:52;4.07;;;1.67;;
15595;SDS011;7898;48.658;9.068;2022-09-09T03:17:18;2.53;;;1.20;;
15595;SDS011;7898;48.658;9.068;2022-09-09T03:19:47;2.60;;;1.23;;
15595;SDS011;7898;48.658;9.068;2022-09-09T03:22:14;3.72;;;1.50;;
15595;SDS011;7898;48.658;9.068;2022-09-09T03:24:43;3.42;;;1.40;;
15595;SDS011;7898;48.658;9.068;2022-09-09T03:27:11;3.47;;;1.73;;
15595;SDS011;7898;48.658;9.068;2022-09-09T03:29:39;2.95;;;1.55;;
15595;SDS011;7898;48.658;9.068;2022-09-09T03:32:06;1.50;;;1.00;;
15595;SDS011;7898;48.658;9.068;2022-09-09T03:34:35;3.40;;;1.60;;
15595;SDS011;7898;48.658;9.068;2022-09-09T03:37:05;4.57;;;1.60;;
15595;SDS011;7898;48.658;9.068;2022-09-09T03:39:32;2.03;;;1.42;;
15595;SDS011;7898;48.658;9.068;2022-09-09T03:41:59;6.20;;;1.75;;
15595;SDS011;7898;48.658;9.068;2022-09-09T03:44:29;3.83;;;1.50;;
15595;SDS011;7898;48.658;9.068;2022-09-09T03:46:56;3.25;;;1.02;;
15595;SDS011;7898;48.658;9.068;2022-09-09T03:49:25;2.87;;;1.50;;
15595;SDS011;7898;48.658;9.068;2022-09-09T03:51:53;5.17;;;2.03;;
15595;SDS011;7898;48.658;9.068;2022-09-09T03:54:22;3.38;;;1.60;;
15595;SDS011;7898;48.658;9.068;2022-09-09T03:56:49;5.03;;;2.00;;
15595;SDS011;7898;48.658;9.068;2022-09-09T03:59:16;3.27;;;1.70;;
15595;SDS011;7898;48.658;9.068;2022-09-09T04:01:43;3.00;;;1.53;;
15595;SDS011;7898;48.658;9.068;2022-09-09T04:04:12;4.03;;;1.50;;
15595;SDS011;7898;48.658;9.068;2022-09-09T04:06:39;3.88;;;1.52;;
15595;SDS011;7898;48.658;9.068;2022-09-09T04:09:06;6.83;;;1.43;;
15595;SDS011;7898;48.658;9.068;2022-09-09T04:11:34;4.33;;;1.60;;
15595;SDS011;7898;48.658;9.068;2022-09-09T04:14:01;3.57;;;1.90;;
15595;SDS011;7898;48.658;9.068;2022-09-09T04:16:31;4.97;;;1.40;;
15595;SDS011;7898;48.658;9.068;2022-09-09T04:18:57;1.73;;;1.63;;
15595;SDS011;7898;48.658;9.068;2022-09-09T04:21:25;3.00;;;1.60;;
15595;SDS011;7898;48.658;9.068;2022-09-09T04:23:51;4.63;;;1.42;;
15595;SDS011;7898;48.658;9.068;2022-09-09T04:26:18;4.00;;;1.83;;
15595;SDS011;7898;48.658;9.068;2022-09-09T04:28:47;4.47;;;2.00;;
15595;SDS011;7898;48.658;9.068;2022-09-09T04:31:15;3.63;;;1.97;;
15595;SDS011;7898;48.658;9.068;2022-09-09T04:33:45;5.60;;;1.80;;
15595;SDS011;7898;48.658;9.068;2022-09-09T04:36:12;6.03;;;1.60;;
15595;SDS011;7898;48.658;9.068;2022-09-09T04:38:39;2.20;;;1.60;;
15595;SDS011;7898;48.658;9.068;2022-09-09T04:41:06;3.55;;;1.83;;
15595;SDS011;7898;48.658;9.068;2022-09-09T04:43:36;2.87;;;1.80;;
15595;SDS011;7898;48.658;9.068;2022-09-09T04:46:04;4.93;;;1.95;;
15595;SDS011;7898;48.658;9.068;2022-09-09T04:48:31;4.53;;;2.08;;
15595;SDS011;7898;48.658;9.068;2022-09-09T04:50:59;2.42;;;1.70;;
15595;SDS011;7898;48.658;9.068;2022-09-09T04:53:29;5.15;;;1.80;;
15595;SDS011;7898;48.658;9.068;2022-09-09T04:56:00;6.57;;;2.30;;
15595;SDS011;7898;48.658;9.068;2022-09-09T04:58:28;3.33;;;1.70;;
15595;SDS011;7898;48.658;9.068;2022-09-09T05:01:02;3.50;;;1.77;;
15595;SDS011;7898;48.658;9.068;2022-09-09T05:03:31;3.05;;;1.63;;
15595;SDS011;7898;48.658;9.068;2022-09-09T05:06:02;3.45;;;1.75;;
15595;SDS011;7898;48.658;9.068;2022-09-09T05:08:33;4.00;;;1.80;;
15595;SDS011;7898;48.658;9.068;2022-09-09T05:11:00;3.90;;;1.77;;
15595;SDS011;7898;48.658;9.068;2022-09-09T05:13:27;2.97;;;2.15;;
15595;SDS011;7898;48.658;9.068;2022-09-09T05:15:57;2.80;;;1.75;;
15595;SDS011;7898;48.658;9.068;2022-09-09T05:18:25;2.97;;;1.47;;
15595;SDS011;7898;48.658;9.068;2022-09-09T05:20:52;1.90;;;1.30;;
15595;SDS011;7898;48.658;9.068;2022-09-09T05:23:24;4.53;;;1.50;;
15595;SDS011;7898;48.658;9.068;2022-09-09T05:25:55;1.92;;;1.50;;
15595;SDS011;7898;48.658;9.068;2022-09-09T05:28:25;2.55;;;1.63;;
15595;SDS011;7898;48.658;9.068;2022-09-09T05:30:56;2.58;;;1.65;;
15595;SDS011;7898;48.658;9.068;2022-09-09T05:33:23;3.03;;;1.85;;
15595;SDS011;7898;48.658;9.068;2022-09-09T05:35:56;4.80;;;1.90;;
15595;SDS011;7898;48.658;9.068;2022-09-09T05:38:23;4.10;;;1.63;;
15595;SDS011;7898;48.658;9.068;2022-09-09T05:40:51;5.20;;;1.55;;
15595;SDS011;7898;48.658;9.068;2022-09-09T05:43:18;3.40;;;1.55;;
15595;SDS011;7898;48.658;9.068;2022-09-09T05:45:45;5.00;;;1.80;;
15595;SDS011;7898;48.658;9.068;2022-09-09T05:48:12;4.68;;;1.92;;
15595;SDS011;7898;48.658;9.068;2022-09-09T05:50:42;2.92;;;1.70;;
15595;SDS011;7898;48.658;9.068;2022-09-09T05:53:10;4.90;;;1.50;;
15595;SDS011;7898;48.658;9.068;2022-09-09T05:55:37;2.67;;;1.50;;
15595;SDS011;7898;48.658;9.068;2022-09-09T05:58:04;3.40;;;1.60;;
15595;SDS011;7898;48.658;9.068;2022-09-09T06:00:30;1.90;;;1.42;;
15595;SDS011;7898;48.658;9.068;2022-09-09T06:02:57;3.60;;;1.65;;
15595;SDS011;7898;48.658;9.068;2022-09-09T06:05:25;2.22;;;1.40;;
15595;SDS011;7898;48.658;9.068;2022-09-09T06:07:54;2.38;;;1.40;;
15595;SDS011;7898;48.658;9.068;2022-09-09T06:10:21;5.10;;;1.70;;
15595;SDS011;7898;48.658;9.068;2022-09-09T06:12:48;7.60;;;1.85;;
15595;SDS011;7898;48.658;9.068;2022-09-09T06:15:18;3.92;;;1.92;;
15595;SDS011;7898;48.658;9.068;2022-09-09T06:17:45;7.00;;;1.70;;
15595;SDS011;7898;48.658;9.068;2022-09-09T06:20:12;3.53;;;1.60;;
15595;SDS011;7898;48.658;9.068;2022-09-09T06:22:39;6.20;;;1.75;;
15595;SDS011;7898;48.658;9.068;2022-09-09T06:25:08;3.92;;;1.88;;
15595;SDS011;7898;48.658;9.068;2022-09-09T06:27:35;3.85;;;2.00;;
15595;SDS011;7898;48.658;9.068;2022-09-09T06:30:02;7.10;;;2.10;;
15595;SDS011;7898;48.658;9.068;2022-09-09T06:32:30;2.33;;;1.67;;
15595;SDS011;7898;48.658;9.068;2022-09-09T06:35:00;4.10;;;1.60;;
15595;SDS011;7898;48.658;9.068;2022-09-09T06:37:27;2.97;;;1.60;;
15595;SDS011;7898;48.658;9.068;2022-09-09T06:39:54;3.30;;;1.50;;
15595;SDS011;7898;48.658;9.068;2022-09-09T06:42:22;3.60;;;1.90;;
15595;SDS011;7898;48.658;9.068;2022-09-09T06:44:49;3.58;;;1.50;;
15595;SDS011;7898;48.658;9.068;2022-09-09T06:47:17;3.00;;;1.35;;
15595;SDS011;7898;48.658;9.068;2022-09-09T06:49:44;3.75;;;1.58;;
15595;SDS011;7898;48.658;9.068;2022-09-09T06:52:11;3.30;;;1.80;;
15595;SDS011;7898;48.658;9.068;2022-09-09T06:54:38;3.45;;;1.45;;
15595;SDS011;7898;48.658;9.068;2022-09-09T06:57:04;1.67;;;1.40;;
15595;SDS011;7898;48.658;9.068;2022-09-09T06:59:34;3.50;;;1.45;;
15595;SDS011;7898;48.658;9.068;2022-09-09T07:02:01;3.05;;;1.63;;
15595;SDS011;7898;48.658;9.068;2022-09-09T07:04:28;3.30;;;1.55;;
15595;SDS011;7898;48.658;9.068;2022-09-09T07:06:55;3.08;;;1.92;;
15595;SDS011;7898;48.658;9.068;2022-09-09T07:09:22;2.78;;;1.42;;
15595;SDS011;7898;48.658;9.068;2022-09-09T07:11:49;6.10;;;1.42;;
15595;SDS011;7898;48.658;9.068;2022-09-09T07:14:17;3.17;;;1.67;;
15595;SDS011;7898;48.658;9.068;2022-09-09T07:16:47;3.08;;;1.30;;
15595;SDS011;7898;48.658;9.068;2022-09-09T07:19:14;4.57;;;1.98;;
15595;SDS011;7898;48.658;9.068;2022-09-09T07:21:41;5.10;;;1.98;;
15595;SDS011;7898;48.658;9.068;2022-09-09T07:24:08;3.58;;;1.50;;
15595;SDS011;7898;48.658;9.068;2022-09-09T07:26:36;3.50;;;1.40;;
15595;SDS011;7898;48.658;9.068;2022-09-09T07:29:04;2.42;;;1.52;;
15595;SDS011;7898;48.658;9.068;2022-09-09T07:31:32;4.43;;;1.85;;
15595;SDS011;7898;48.658;9.068;2022-09-09T07:34:02;5.53;;;1.60;;
15595;SDS011;7898;48.658;9.068;2022-09-09T07:36:29;2.17;;;1.15;;
15595;SDS011;7898;48.658;9.068;2022-09-09T07:38:58;6.05;;;1.10;;
15595;SDS011;7898;48.658;9.068;2022-09-09T07:41:30;2.45;;;1.38;;
15595;SDS011;7898;48.658;9.068;2022-09-09T07:43:59;1.77;;;1.20;;
15595;SDS011;7898;48.658;9.068;2022-09-09T07:46:30;4.05;;;1.45;;
15595;SDS011;7898;48.658;9.068;2022-09-09T07:48:57;4.10;;;1.25;;
15595;SDS011;7898;48.658;9.068;2022-09-09T07:51:26;3.10;;;1.40;;
15595;SDS011;7898;48.658;9.068;2022-09-09T07:53:55;2.13;;;1.20;;
15595;SDS011;7898;48.658;9.068;2022-09-09T07:56:23;4.63;;;1.30;;
15595;SDS011;7898;48.658;9.068;2022-09-09T07:58:52;2.25;;;1.10;;
15595;SDS011;7898;48.658;9.068;2022-09-09T08:01:21;3.97;;;1.35;;
15595;SDS011;7898;48.658;9.068;2022-09-09T08:03:52;1.40;;;1.05;;
15595;SDS011;7898;48.658;9.068;2022-09-09T08:06:25;3.10;;;1.30;;
15595;SDS011;7898;48.658;9.068;2022-09-09T08:08:53;2.78;;;1.27;;
15595;SDS011;7898;48.658;9.068;2022-09-09T08:11:21;3.85;;;1.30;;
15595;SDS011;7898;48.658;9.068;2022-09-09T08:13:50;4.18;;;1.13;;
15595;SDS011;7898;48.658;9.068;2022-09-09T08:16:18;2.95;;;1.10;;
15595;SDS011;7898;48.658;9.068;2022-09-09T08:18:47;1.60;;;1.05;;
15595;SDS011;7898;48.658;9.068;2022-09-09T08:21:17;3.65;;;1.40;;
15595;SDS011;7898;48.658;9.068;2022-09-09T08:23:47;3.53;;;1.55;;
15595;SDS011;7898;48.658;9.068;2022-09-09T08:26:17;1.25;;;0.90;;
15595;SDS011;7898;48.658;9.068;2022-09-09T08:28:47;2.33;;;1.30;;
15595;SDS011;7898;48.658;9.068;2022-09-09T08:31:17;5.53;;;1.38;;
15595;SDS011;7898;48.658;9.068;2022-09-09T08:33:47;1.63;;;0.90;;
15595;SDS011;7898;48.658;9.068;2022-09-09T08:36:16;4.60;;;1.23;;
15595;SDS011;7898;48.658;9.068;2022-09-09T08:38:46;3.17;;;1.40;;
15595;SDS011;7898;48.658;9.068;2022-09-09T08:41:21;4.25;;;1.10;;
15595;SDS011;7898;48.658;9.068;2022-09-09T08:43:59;2.90;;;1.08;;
15595;SDS011;7898;48.658;9.068;2022-09-09T08:46:31;3.92;;;1.45;;
15595;SDS011;7898;48.658;9.068;2022-09-09T08:49:06;2.75;;;1.30;;
15595;SDS011;7898;48.658;9.068;2022-09-09T08:51:45;5.43;;;1.38;;
15595;SDS011;7898;48.658;9.068;2022-09-09T08:54:13;2.38;;;0.90;;
15595;SDS011;7898;48.658;9.068;2022-09-09T08:56:40;3.40;;;1.00;;
15595;SDS011;7898;48.658;9.068;2022-09-09T08:59:07;7.55;;;1.55;;
15595;SDS011;7898;48.658;9.068;2022-09-09T09:01:45;3.50;;;1.13;;
15595;SDS011;7898;48.658;9.068;2022-09-09T09:04:25;4.93;;;1.30;;
15595;SDS011;7898;48.658;9.068;2022-09-09T09:07:02;5.20;;;1.15;;
15595;SDS011;7898;48.658;9.068;2022-09-09T09:09:39;4.78;;;1.10;;
15595;SDS011;7898;48.658;9.068;2022-09-09T09:12:15;11.73;;;2.17;;
15595;SDS011;7898;48.658;9.068;2022-09-09T09:14:44;1.20;;;0.55;;
15595;SDS011;7898;48.658;9.068;2022-09-09T09:17:14;2.55;;;0.90;;
15595;SDS011;7898;48.658;9.068;2022-09-09T09:19:43;3.05;;;0.70;;
15595;SDS011;7898;48.658;9.068;2022-09-09T09:22:14;2.00;;;0.60;;
15595;SDS011;7898;48.658;9.068;2022-09-09T09:24:48;3.45;;;1.05;;
15595;SDS011;7898;48.658;9.068;2022-09-09T09:27:18;1.42;;;0.82;;
15595;SDS011;7898;48.658;9.068;2022-09-09T09:29:54;2.63;;;0.80;;
15595;SDS011;7898;48.658;9.068;2022-09-09T09:32:27;2.20;;;0.77;;
15595;SDS011;7898;48.658;9.068;2022-09-09T09:34:59;7.80;;;1.10;;
15595;SDS011;7898;48.658;9.068;2022-09-09T09:37:31;2.35;;;0.90;;
15595;SDS011;7898;48.658;9.068;2022-09-09T09:40:09;2.05;;;1.15;;
15595;SDS011;7898;48.658;9.068;2022-09-09T09:42:37;2.22;;;1.17;;
15595;SDS011;7898;48.658;9.068;2022-09-09T09:45:14;2.30;;;1.20;;
15595;SDS011;7898;48.658;9.068;2022-09-09T09:47:56;4.78;;;1.45;;
15595;SDS011;7898;48.658;9.068;2022-09-09T09:50:24;3.65;;;1.27;;
15595;SDS011;7898;48.658;9.068;2022-09-09T09:52:54;3.97;;;1.15;;
15595;SDS011;7898;48.658;9.068;2022-09-09T09:55:24;3.10;;;1.20;;
15595;SDS011;7898;48.658;9.068;2022-09-09T09:57:52;5.25;;;1.60;;
15595;SDS011;7898;48.658;9.068;2022-09-09T10:00:19;5.35;;;1.40;;
15595;SDS011;7898;48.658;9.068;2022-09-09T10:02:48;2.83;;;1.40;;
15595;SDS011;7898;48.658;9.068;2022-09-09T10:05:18;2.53;;;1.40;;
15595;SDS011;7898;48.658;9.068;2022-09-09T10:07:46;2.20;;;1.30;;
15595;SDS011;7898;48.658;9.068;2022-09-09T10:10:29;2.53;;;1.33;;
15595;SDS011;7898;48.658;9.068;2022-09-09T10:13:08;3.58;;;1.58;;
15595;SDS011;7898;48.658;9.068;2022-09-09T10:15:42;3.00;;;1.27;;
15595;SDS011;7898;48.658;9.068;2022-09-09T10:18:22;3.72;;;1.33;;
15595;SDS011;7898;48.658;9.068;2022-09-09T10:21:02;4.82;;;1.40;;
15595;SDS011;7898;48.658;9.068;2022-09-09T10:23:42;3.78;;;1.50;;
15595;SDS011;7898;48.658;9.068;2022-09-09T10:26:28;4.05;;;1.48;;
15595;SDS011;7898;48.658;9.068;2022-09-09T10:29:11;3.13;;;1.10;;
15595;SDS011;7898;48.658;9.068;2022-09-09T10:31:54;3.50;;;1.13;;
15595;SDS011;7898;48.658;9.068;2022-09-09T10:34:41;2.35;;;1.17;;
15595;SDS011;7898;48.658;9.068;2022-09-09T10:37:24;1.92;;;1.40;;
15595;SDS011;7898;48.658;9.068;2022-09-09T10:40:02;4.05;;;1.38;;
15595;SDS011;7898;48.658;9.068;2022-09-09T10:42:43;2.78;;;1.20;;
15595;SDS011;7898;48.658;9.068;2022-09-09T10:45:15;3.17;;;1.42;;
15595;SDS011;7898;48.658;9.068;2022-09-09T10:47:47;2.03;;;0.85;;
15595;SDS011;7898;48.658;9.068;2022-09-09T10:50:29;3.67;;;1.35;;
15595;SDS011;7898;48.658;9.068;2022-09-09T10:53:10;3.28;;;0.95;;
15595;SDS011;7898;48.658;9.068;2022-09-09T10:55:45;6.75;;;1.35;;
15595;SDS011;7898;48.658;9.068;2022-09-09T10:58:20;4.13;;;1.10;;
15595;SDS011;7898;48.658;9.068;2022-09-09T11:00:52;3.67;;;1.20;;
15595;SDS011;7898;48.658;9.068;2022-09-09T11:03:23;2.40;;;1.25;;
15595;SDS011;7898;48.658;9.068;2022-09-09T11:05:55;5.50;;;1.42;;
15595;SDS011;7898;48.658;9.068;2022-09-09T11:08:26;2.22;;;1.30;;
15595;SDS011;7898;48.658;9.068;2022-09-09T11:10:57;4.50;;;1.63;;
15595;SDS011;7898;48.658;9.068;2022-09-09T11:13:30;2.75;;;0.93;;
15595;SDS011;7898;48.658;9.068;2022-09-09T11:16:05;2.47;;;1.13;;
15595;SDS011;7898;48.658;9.068;2022-09-09T11:18:42;1.40;;;0.73;;
15595;SDS011;7898;48.658;9.068;2022-09-09T11:21:15;2.00;;;0.90;;
15595;SDS011;7898;48.658;9.068;2022-09-09T11:23:48;3.38;;;0.80;;
15595;SDS011;7898;48.658;9.068;2022-09-09T11:26:27;1.83;;;0.88;;
15595;SDS011;7898;48.658;9.068;2022-09-09T11:29:03;3.58;;;1.02;;
15595;SDS011;7898;48.658;9.068;2022-09-09T11:31:51;1.35;;;0.57;;
15595;SDS011;7898;48.658;9.068;2022-09-09T11:34:30;2.20;;;0.50;;
15595;SDS011;7898;48.658;9.068;2022-09-09T11:37:17;0.73;;;0.50;;
15595;SDS011;7898;48.658;9.068;2022-09-09T11:40:14;1.35;;;0.40;;
15595;SDS011;7898;48.658;9.068;2022-09-09T11:43:00;2.25;;;0.50;;
15595;SDS011;7898;48.658;9.068;2022-09-09T11:45:31;4.75;;;0.50;;
15595;SDS011;7898;48.658;9.068;2022-09-09T11:48:01;2.92;;;0.57;;
15595;SDS011;7898;48.658;9.068;2022-09-09T11:50:37;0.80;;;0.30;;
15595;SDS011;7898;48.658;9.068;2022-09-09T11:53:15;0.55;;;0.32;;
15595;SDS011;7898;48.658;9.068;2022-09-09T11:56:02;1.88;;;0.50;;
15595;SDS011;7898;48.658;9.068;2022-09-09T11:58:33;1.77;;;0.22;;
15595;SDS011;7898;48.658;9.068;2022-09-09T12:04:27;0.70;;;0.30;;
15595;SDS011;7898;48.658;9.068;2022-09-09T12:06:58;0.55;;;0.40;;
15595;SDS011;7898;48.658;9.068;2022-09-09T12:09:29;0.60;;;0.40;;
15595;SDS011;7898;48.658;9.068;2022-09-09T12:12:06;1.73;;;0.40;;
15595;SDS011;7898;48.658;9.068;2022-09-09T12:14:54;2.05;;;0.40;;
15595;SDS011;7898;48.658;9.068;2022-09-09T12:17:26;0.50;;;0.30;;
15595;SDS011;7898;48.658;9.068;2022-09-09T12:20:02;0.52;;;0.30;;
15595;SDS011;7898;48.658;9.068;2022-09-09T12:22:35;1.13;;;0.50;;
15595;SDS011;7898;48.658;9.068;2022-09-09T12:25:13;0.77;;;0.28;;
15595;SDS011;7898;48.658;9.068;2022-09-09T12:27:46;1.38;;;0.30;;
15595;SDS011;7898;48.658;9.068;2022-09-09T12:30:27;2.67;;;0.47;;
15595;SDS011;7898;48.658;9.068;2022-09-09T12:33:06;3.10;;;1.10;;
15595;SDS011;7898;48.658;9.068;2022-09-09T12:35:37;1.20;;;0.60;;
15595;SDS011;7898;48.658;9.068;2022-09-09T12:38:06;1.70;;;0.50;;
15595;SDS011;7898;48.658;9.068;2022-09-09T12:40:39;1.17;;;0.50;;
15595;SDS011;7898;48.658;9.068;2022-09-09T12:43:16;1.63;;;0.43;;
15595;SDS011;7898;48.658;9.068;2022-09-09T12:45:44;3.33;;;0.77;;
15595;SDS011;7898;48.658;9.068;2022-09-09T12:48:16;3.08;;;0.75;;
15595;SDS011;7898;48.658;9.068;2022-09-09T12:50:45;1.33;;;0.50;;
15595;SDS011;7898;48.658;9.068;2022-09-09T12:53:21;2.95;;;0.80;;
15595;SDS011;7898;48.658;9.068;2022-09-09T12:55:52;2.03;;;0.70;;
15595;SDS011;7898;48.658;9.068;2022-09-09T12:58:22;1.77;;;0.75;;
15595;SDS011;7898;48.658;9.068;2022-09-09T13:00:50;3.85;;;0.70;;
15595;SDS011;7898;48.658;9.068;2022-09-09T13:03:21;3.42;;;0.60;;
15595;SDS011;7898;48.658;9.068;2022-09-09T13:05:50;1.85;;;0.50;;
15595;SDS011;7898;48.658;9.068;2022-09-09T13:08:18;3.75;;;0.60;;
15595;SDS011;7898;48.658;9.068;2022-09-09T13:10:46;1.58;;;0.60;;
15595;SDS011;7898;48.658;9.068;2022-09-09T13:13:20;3.53;;;0.77;;
15595;SDS011;7898;48.658;9.068;2022-09-09T13:15:50;2.83;;;0.60;;
15595;SDS011;7898;48.658;9.068;2022-09-09T13:18:19;2.70;;;0.73;;
15595;SDS011;7898;48.658;9.068;2022-09-09T13:20:50;1.23;;;0.60;;
15595;SDS011;7898;48.658;9.068;2022-09-09T13:23:18;2.20;;;1.20;;
15595;SDS011;7898;48.658;9.068;2022-09-09T13:25:53;3.83;;;0.70;;
15595;SDS011;7898;48.658;9.068;2022-09-09T13:28:21;1.35;;;0.68;;
15595;SDS011;7898;48.658;9.068;2022-09-09T13:30:57;4.18;;;0.63;;
15595;SDS011;7898;48.658;9.068;2022-09-09T13:33:30;3.45;;;0.60;;
15595;SDS011;7898;48.658;9.068;2022-09-09T13:35:59;3.53;;;0.68;;
15595;SDS011;7898;48.658;9.068;2022-09-09T13:38:30;3.22;;;1.00;;
15595;SDS011;7898;48.658;9.068;2022-09-09T13:41:00;3.92;;;0.60;;
15595;SDS011;7898;48.658;9.068;2022-09-09T13:43:29;2.35;;;0.68;;
15595;SDS011;7898;48.658;9.068;2022-09-09T13:46:00;1.50;;;0.50;;
15595;SDS011;7898;48.658;9.068;2022-09-09T13:48:30;5.82;;;0.73;;
15595;SDS011;7898;48.658;9.068;2022-09-09T13:50:58;3.40;;;0.50;;
15595;SDS011;7898;48.658;9.068;2022-09-09T13:53:26;2.40;;;0.95;;
15595;SDS011;7898;48.658;9.068;2022-09-09T13:55:53;1.67;;;0.70;;
15595;SDS011;7898;48.658;9.068;2022-09-09T13:58:21;1.33;;;0.40;;
15595;SDS011;7898;48.658;9.068;2022-09-09T14:00:50;1.17;;;0.40;;
15595;SDS011;7898;48.658;9.068;2022-09-09T14:03:17;1.15;;;0.60;;
15595;SDS011;7898;48.658;9.068;2022-09-09T14:05:46;1.95;;;0.63;;
15595;SDS011;7898;48.658;9.068;2022-09-09T14:08:23;3.03;;;0.73;;
15595;SDS011;7898;48.658;9.068;2022-09-09T14:10:51;1.95;;;0.50;;
15595;SDS011;7898;48.658;9.068;2022-09-09T14:13:23;1.77;;;0.88;;
15595;SDS011;7898;48.658;9.068;2022-09-09T14:15:50;1.90;;;0.50;;
15595;SDS011;7898;48.658;9.068;2022-09-09T14:18:17;1.65;;;0.40;;
15595;SDS011;7898;48.658;9.068;2022-09-09T14:20:46;1.10;;;0.40;;
15595;SDS011;7898;48.658;9.068;2022-09-09T14:23:13;0.80;;;0.38;;
15595;SDS011;7898;48.658;9.068;2022-09-09T14:25:41;0.95;;;0.30;;
15595;SDS011;7898;48.658;9.068;2022-09-09T14:28:11;2.03;;;0.85;;
15595;SDS011;7898;48.658;9.068;2022-09-09T14:30:39;1.15;;;0.38;;
15595;SDS011;7898;48.658;9.068;2022-09-09T14:33:09;0.68;;;0.38;;
15595;SDS011;7898;48.658;9.068;2022-09-09T14:35:37;1.35;;;0.40;;
15595;SDS011;7898;48.658;9.068;2022-09-09T14:38:07;1.13;;;0.40;;
15595;SDS011;7898;48.658;9.068;2022-09-09T14:40:35;1.25;;;0.50;;
15595;SDS011;7898;48.658;9.068;2022-09-09T14:43:03;2.13;;;0.40;;
15595;SDS011;7898;48.658;9.068;2022-09-09T14:45:30;1.23;;;0.57;;
15595;SDS011;7898;48.658;9.068;2022-09-09T14:47:57;2.05;;;0.50;;
15595;SDS011;7898;48.658;9.068;2022-09-09T14:50:25;2.42;;;0.68;;
15595;SDS011;7898;48.658;9.068;2022-09-09T14:52:52;4.72;;;0.73;;
15595;SDS011;7898;48.658;9.068;2022-09-09T14:55:20;1.85;;;0.50;;
15595;SDS011;7898;48.658;9.068;2022-09-09T14:57:47;2.70;;;0.68;;
15595;SDS011;7898;48.658;9.068;2022-09-09T15:00:14;2.53;;;0.60;;
15595;SDS011;7898;48.658;9.068;2022-09-09T15:02:41;0.70;;;0.50;;
15595;SDS011;7898;48.658;9.068;2022-09-09T15:05:08;4.15;;;0.60;;
15595;SDS011;7898;48.658;9.068;2022-09-09T15:07:35;2.03;;;0.80;;
15595;SDS011;7898;48.658;9.068;2022-09-09T15:10:03;2.38;;;0.65;;
15595;SDS011;7898;48.658;9.068;2022-09-09T15:12:32;2.10;;;0.80;;
15595;SDS011;7898;48.658;9.068;2022-09-09T15:15:00;2.22;;;0.70;;
15595;SDS011;7898;48.658;9.068;2022-09-09T15:17:28;7.20;;;0.90;;
15595;SDS011;7898;48.658;9.068;2022-09-09T15:19:55;1.15;;;0.43;;
15595;SDS011;7898;48.658;9.068;2022-09-09T15:22:22;3.00;;;0.70;;
15595;SDS011;7898;48.658;9.068;2022-09-09T15:24:49;4.35;;;0.77;;
15595;SDS011;7898;48.658;9.068;2022-09-09T15:27:16;1.33;;;0.60;;
15595;SDS011;7898;48.658;9.068;2022-09-09T15:29:44;2.60;;;0.68;;
15595;SDS011;7898;48.658;9.068;2022-09-09T15:32:11;3.85;;;0.57;;
15595;SDS011;7898;48.658;9.068;2022-09-09T15:34:38;1.63;;;0.45;;